createdAt,value
2019-05-11T00:04:06.621Z,81.92
2019-05-11T00:09:02.951Z,82.99
2019-05-11T00:13:56.906Z,83.65
2019-05-11T00:18:51.177Z,84.14
2019-05-11T00:23:45.157Z,84.37
2019-05-11T00:28:39.129Z,84.37
2019-05-11T00:33:33.096Z,83.86
2019-05-11T00:38:27.037Z,83.61
2019-05-11T00:43:21.015Z,83.93
2019-05-11T00:48:14.996Z,84.04
2019-05-11T00:53:09.274Z,84.20
2019-05-11T00:58:03.340Z,83.86
2019-05-11T01:02:57.287Z,84.34
2019-05-11T01:07:51.261Z,84.14
2019-05-11T01:12:45.319Z,83.95
2019-05-11T01:17:39.409Z,83.55
2019-05-11T01:22:33.383Z,83.22
2019-05-11T01:27:27.342Z,83.21
2019-05-11T01:32:21.298Z,83.42
2019-05-11T01:37:15.331Z,83.50
2019-05-11T01:42:09.212Z,83.73
2019-05-11T01:47:03.262Z,84.18
2019-05-11T01:51:57.219Z,84.12
2019-05-11T01:56:51.209Z,83.85
2019-05-11T02:01:45.183Z,83.85
2019-05-11T02:06:39.137Z,84.42
2019-05-11T02:11:33.171Z,84.35
2019-05-11T02:16:27.129Z,84.53
2019-05-11T02:21:21.133Z,85.05
2019-05-11T02:26:15.103Z,85.42
2019-05-11T02:31:09.089Z,84.97
2019-05-11T02:36:03.185Z,84.32
2019-05-11T02:40:57.261Z,85.04
2019-05-11T02:45:51.218Z,84.37
2019-05-11T02:50:45.599Z,84.64
2019-05-11T02:55:39.564Z,84.46
2019-05-11T03:00:36.627Z,84.69
2019-05-11T03:05:30.590Z,84.54
2019-05-11T03:10:24.576Z,84.85
2019-05-11T03:15:18.528Z,84.90
2019-05-11T03:20:12.490Z,85.08
2019-05-11T03:25:06.442Z,84.85
2019-05-11T03:30:01.673Z,84.47
2019-05-11T03:34:56.290Z,84.70
2019-05-11T03:39:50.207Z,85.10
2019-05-11T03:44:44.165Z,85.15
2019-05-11T03:49:38.144Z,85.42
2019-05-11T03:54:32.109Z,84.73
2019-05-11T03:59:26.058Z,84.98
2019-05-11T04:04:20.009Z,85.09
2019-05-11T04:09:13.973Z,85.36
2019-05-11T04:14:07.922Z,85.11
2019-05-11T04:19:01.874Z,84.87
2019-05-11T04:23:55.873Z,84.75
2019-05-11T04:28:49.820Z,84.07
2019-05-11T04:33:43.878Z,84.70
2019-05-11T04:38:37.937Z,84.38
2019-05-11T04:43:32.145Z,84.56
2019-05-11T04:48:26.134Z,84.72
2019-05-11T04:53:20.114Z,84.30
2019-05-11T04:58:14.164Z,83.61
2019-05-11T05:03:08.128Z,83.47
2019-05-11T05:08:09.505Z,83.47
2019-05-11T05:13:10.275Z,83.51
2019-05-11T05:17:53.877Z,82.83
2019-05-11T05:22:47.849Z,83.01
2019-05-11T05:27:41.778Z,82.58
2019-05-11T05:32:35.747Z,82.50
2019-05-11T05:37:29.708Z,82.46
2019-05-11T05:42:23.719Z,82.10
2019-05-11T05:47:17.761Z,82.03
2019-05-11T05:52:11.941Z,81.97
2019-05-11T05:57:05.881Z,82.11
2019-05-11T06:01:59.847Z,81.88
2019-05-11T06:06:54.346Z,81.83
2019-05-11T06:11:48.367Z,81.78
2019-05-11T06:16:42.346Z,81.68
2019-05-11T06:21:36.309Z,81.39
2019-05-11T06:26:30.398Z,81.16
2019-05-11T06:31:24.461Z,80.72
2019-05-11T06:36:18.424Z,79.91
2019-05-11T06:41:12.381Z,80.31
2019-05-11T06:46:06.330Z,80.21
2019-05-11T06:51:00.477Z,79.69
2019-05-11T06:55:54.454Z,79.59
2019-05-11T07:00:48.405Z,79.67
2019-05-11T07:05:43.281Z,79.78
2019-05-11T07:10:37.370Z,79.76
2019-05-11T07:15:31.342Z,79.40
2019-05-11T07:20:25.323Z,79.23
2019-05-11T07:25:19.411Z,79.04
2019-05-11T07:30:13.516Z,79.06
2019-05-11T07:35:08.402Z,78.77
2019-05-11T07:40:05.501Z,79.04
2019-05-11T07:44:59.483Z,78.80
2019-05-11T07:49:53.498Z,78.97
2019-05-11T07:54:52.602Z,78.21
2019-05-11T07:59:43.361Z,77.53
2019-05-11T08:04:37.921Z,77.12
2019-05-11T08:09:32.018Z,75.19
2019-05-11T08:14:28.758Z,75.08
2019-05-11T08:19:22.480Z,73.53
2019-05-11T08:24:18.031Z,72.16
2019-05-11T08:29:12.230Z,71.89
2019-05-11T08:34:08.664Z,72.50
2019-05-11T08:39:04.688Z,72.55
2019-05-11T08:43:58.915Z,71.84
2019-05-11T08:48:52.942Z,70.98
2019-05-11T08:53:48.007Z,71.14
2019-05-11T08:58:42.185Z,71.32
2019-05-11T09:03:38.553Z,71.17
2019-05-11T09:08:32.109Z,71.18
2019-05-11T09:13:27.920Z,70.15
2019-05-11T09:18:22.110Z,70.24
2019-05-11T09:23:30.890Z,69.54
2019-05-11T09:28:12.170Z,70.47
2019-05-11T09:33:08.404Z,70.52
2019-05-11T09:38:02.346Z,70.08
2019-05-11T09:42:58.322Z,68.51
2019-05-11T09:47:52.232Z,68.08
2019-05-11T09:52:48.722Z,67.36
2019-05-11T09:57:42.292Z,64.18
2019-05-11T10:02:38.539Z,61.93
2019-05-11T10:07:32.676Z,62.41
2019-05-11T10:12:28.606Z,61.70
2019-05-11T10:17:22.493Z,61.11
2019-05-11T10:22:18.554Z,60.71
2019-05-11T10:27:12.565Z,60.12
2019-05-11T10:32:07.952Z,57.51
2019-05-11T10:37:02.241Z,52.75
2019-05-11T10:41:58.385Z,47.79
2019-05-11T10:46:52.281Z,42.97
2019-05-11T10:51:48.503Z,42.06
2019-05-11T10:56:42.221Z,42.66
2019-05-11T11:01:38.000Z,42.77
2019-05-11T11:06:33.440Z,38.82
2019-05-11T11:11:27.962Z,38.53
2019-05-11T11:16:35.737Z,44.33
2019-05-11T11:21:22.529Z,42.20
2019-05-11T11:26:13.901Z,35.31
2019-05-11T11:31:08.072Z,31.60
2019-05-11T11:36:02.157Z,34.20
2019-05-11T11:40:58.511Z,42.65
2019-05-11T11:45:52.001Z,47.58
2019-05-11T11:50:48.053Z,43.03
2019-05-11T11:55:41.967Z,39.50
2019-05-11T12:00:36.085Z,32.17
2019-05-11T12:05:30.217Z,28.09
2019-05-11T12:10:24.222Z,35.18
2019-05-11T12:15:18.398Z,38.17
2019-05-11T12:20:12.678Z,39.35
2019-05-11T12:25:07.954Z,40.38
2019-05-11T12:30:05.354Z,42.53
2019-05-11T12:34:59.357Z,44.61
2019-05-11T12:39:53.332Z,40.02
2019-05-11T12:44:48.153Z,29.42
2019-05-11T12:49:42.503Z,19.90
2019-05-11T12:54:38.401Z,15.02
2019-05-11T12:59:32.529Z,19.97
2019-05-11T13:04:28.249Z,31.59
2019-05-11T13:09:22.426Z,38.85
2019-05-11T13:14:18.451Z,38.62
2019-05-11T13:19:12.385Z,37.68
2019-05-11T13:24:08.326Z,39.84
2019-05-11T13:29:02.471Z,41.78
2019-05-11T13:33:58.544Z,43.09
2019-05-11T13:38:52.369Z,43.79
2019-05-11T13:43:48.528Z,43.91
2019-05-11T13:48:42.429Z,44.08
2019-05-11T13:53:37.662Z,43.95
2019-05-11T13:58:31.789Z,42.18
2019-05-11T14:03:27.688Z,39.38
2019-05-11T14:08:21.776Z,35.54
2019-05-11T14:13:17.560Z,25.66
2019-05-11T14:18:12.162Z,15.64
2019-05-11T14:23:07.719Z,12.90
2019-05-11T14:28:02.031Z,12.39
2019-05-11T14:32:58.102Z,12.00
2019-05-11T14:37:51.996Z,12.74
2019-05-11T14:42:45.981Z,12.74
2019-05-11T14:47:42.690Z,12.17
2019-05-11T14:52:38.191Z,13.10
2019-05-11T14:57:31.943Z,17.00
2019-05-11T15:02:28.653Z,20.05
2019-05-11T15:07:22.717Z,18.16
2019-05-11T15:12:18.154Z,17.75
2019-05-11T15:17:12.253Z,20.72
2019-05-11T15:22:08.553Z,23.38
2019-05-11T15:27:02.089Z,27.59
2019-05-11T15:31:57.919Z,32.89
2019-05-11T15:36:52.056Z,35.10
2019-05-11T15:41:48.043Z,37.37
2019-05-11T15:46:42.255Z,38.37
2019-05-11T15:51:40.753Z,35.07
2019-05-11T15:56:32.511Z,33.86
2019-05-11T16:01:28.778Z,30.67
2019-05-11T16:06:22.470Z,32.49
2019-05-11T16:11:18.088Z,37.23
2019-05-11T16:16:13.863Z,39.52
2019-05-11T16:21:07.853Z,38.01
2019-05-11T16:26:02.329Z,33.66
2019-05-11T16:30:58.348Z,34.82
2019-05-11T16:35:52.310Z,37.92
2019-05-11T16:40:48.024Z,40.30
2019-05-11T16:45:42.314Z,42.40
2019-05-11T16:50:38.284Z,45.48
2019-05-11T16:55:32.325Z,47.42
2019-05-11T17:00:26.383Z,47.21
2019-05-11T17:05:26.650Z,46.13
2019-05-11T17:10:17.956Z,46.74
2019-05-11T17:15:12.412Z,44.71
2019-05-11T17:20:07.921Z,44.86
2019-05-11T17:25:04.931Z,48.63
2019-05-11T17:29:59.412Z,50.53
2019-05-11T17:34:53.426Z,51.90
2019-05-11T17:39:48.036Z,53.17
2019-05-11T17:44:42.116Z,56.79
2019-05-11T17:49:38.366Z,58.16
2019-05-11T17:54:32.106Z,55.98
2019-05-11T17:59:28.129Z,55.73
2019-05-11T18:04:25.047Z,50.77
2019-05-11T18:09:19.426Z,48.06
2019-05-11T18:14:13.448Z,47.03
2019-05-11T18:19:08.491Z,45.28
2019-05-11T18:24:03.109Z,47.53
2019-05-11T18:28:58.613Z,46.73
2019-05-11T18:33:52.775Z,46.09
2019-05-11T18:38:48.765Z,46.60
2019-05-11T18:43:42.698Z,46.65
2019-05-11T18:48:38.090Z,46.67
2019-05-11T18:53:32.323Z,46.14
2019-05-11T18:58:27.681Z,44.84
2019-05-11T19:03:22.026Z,45.59
2019-05-11T19:08:16.056Z,45.96
2019-05-11T19:13:10.213Z,48.35
2019-05-11T19:18:04.316Z,48.96
2019-05-11T19:22:58.967Z,51.23
2019-05-11T19:27:55.459Z,51.26
2019-05-11T19:32:50.768Z,51.95
2019-05-11T19:37:44.724Z,53.54
2019-05-11T19:42:53.846Z,53.67
2019-05-11T19:47:48.445Z,53.91
2019-05-11T19:52:42.612Z,53.21
2019-05-11T19:57:38.622Z,52.62
2019-05-11T20:02:32.844Z,52.13
2019-05-11T20:07:26.825Z,50.41
2019-05-11T20:12:20.963Z,49.74
2019-05-11T20:17:14.944Z,49.99
2019-05-11T20:22:09.071Z,50.70
2019-05-11T20:27:03.163Z,50.87
2019-05-11T20:31:58.545Z,51.73
2019-05-11T20:36:52.574Z,52.08
2019-05-11T20:41:47.741Z,52.79
2019-05-11T20:46:41.830Z,54.35
2019-05-11T20:51:37.163Z,56.17
2019-05-11T20:56:31.326Z,55.73
2019-05-11T21:01:28.294Z,54.80
2019-05-11T21:06:21.981Z,54.78
2019-05-11T21:11:17.990Z,54.86
2019-05-11T21:16:11.838Z,55.82
2019-05-11T21:21:05.869Z,56.51
2019-05-11T21:25:59.955Z,57.96
2019-05-11T21:30:54.061Z,56.55
2019-05-11T21:35:48.904Z,57.10
2019-05-11T21:40:43.575Z,57.48
2019-05-11T21:45:40.476Z,59.15
2019-05-11T21:50:33.512Z,59.46
2019-05-11T21:55:29.340Z,58.55
2019-05-11T22:00:25.486Z,58.93
2019-05-11T22:05:20.924Z,58.47
2019-05-11T22:10:17.286Z,58.42
2019-05-11T22:15:11.284Z,57.79
2019-05-11T22:20:07.575Z,58.58
2019-05-11T22:25:02.728Z,60.62
2019-05-11T22:29:58.945Z,60.60
2019-05-11T22:34:52.726Z,61.93
2019-05-11T22:39:46.741Z,62.92
2019-05-11T22:44:40.720Z,62.04
2019-05-11T22:49:34.778Z,61.96
2019-05-11T22:54:29.058Z,61.26
2019-05-11T22:59:23.084Z,61.54
2019-05-11T23:04:19.651Z,61.67
2019-05-11T23:09:13.523Z,62.20
2019-05-11T23:14:09.925Z,62.05
2019-05-11T23:19:03.443Z,62.65
2019-05-11T23:23:58.354Z,62.95
2019-05-11T23:28:52.501Z,63.04
2019-05-11T23:33:46.463Z,63.30
2019-05-11T23:38:40.428Z,65.12
2019-05-11T23:43:34.382Z,65.23
2019-05-11T23:48:28.358Z,64.84
2019-05-11T23:53:22.364Z,65.40
2019-05-11T23:58:19.160Z,65.18
